• Join FlightAware (Why Join?)
  • Login
  • US Flag GB Flag 
12:28 EDT


 

Airport Tracker/Info


-or-


 

Live Flight TrackerFlight Track Log ✈ UAL5887 ✈ 19-Apr-2013 ✈ KBNA - KORD

Flight Track Log - Related Links

Times and Time Zones

All times are in EDT time to prevent confusion due to time zone crossing. See the UAL5887 flight status page for this flight to view local times or setup timezone preferences in your user account.

Time Position Orientation Groundspeed Altitude Reporting Facility
EDT Latitude Longitude Course Direction KTS MPH feet Rate Location/Type
08:17 36.1500 -86.6667 11° North 167 192 1,200  Level Nashville TRACON
08:18 36.2167 -86.6500 11° North 232 267 3,300 1,860 Climbing Nashville TRACON
08:19 36.2833 -86.6167 22° Northeast 277 319 5,300 1,920 Climbing Nashville TRACON
08:21 36.3739 -86.5706 22° Northeast 312 359 8,000 1,800 Climbing Memphis Center
08:22 36.4581 -86.5306 21° North 312 359 9,700 1,200 Climbing Memphis Center
08:23 36.5506 -86.4875 21° North 338 389 10,400 780 Climbing Memphis Center
08:24 36.6572 -86.4358 21° North 385 443 11,300 1,020 Climbing Memphis Center
08:25 36.7700 -86.3786 22° Northeast 421 484 12,500 1,200 Climbing Memphis Center
08:26 36.8828 -86.3211 22° Northeast 427 491 13,800 1,320 Climbing Memphis Center
08:28 37.0981 -86.2131 22° Northeast 444 511 16,400 1,380 Climbing Indianapolis Center
08:29 37.2336 -86.1428 22° Northeast 447 514 17,900 1,380 Climbing Indianapolis Center
08:30 37.3481 -86.0711 26° Northeast 455 524 19,300 1,140 Climbing Indianapolis Center
08:31 37.4639 -85.9972 27° Northeast 462 532 20,300 960 Climbing Indianapolis Center
08:32 37.5792 -85.9231 27° Northeast 472 543 21,300 960 Climbing Indianapolis Center
08:33 37.7000 -85.8436 27° Northeast 482 555 22,300 960 Climbing Indianapolis Center
08:34 37.8269 -85.7747 23° Northeast 496 571 23,300 960 Climbing Indianapolis Center
08:35 37.9586 -85.7633 North 482 555 24,300 960 Climbing Indianapolis Center
08:36 38.0908 -85.7600 North 477 549 25,300 960 Climbing Indianapolis Center
08:37 38.2250 -85.7558 North 479 551 26,300 1,020 Climbing Indianapolis Center
08:38 38.3883 -85.7494 North 486 559 27,400 1,020 Climbing Indianapolis Center
08:39 38.5250 -85.7447 North 491 565 28,400 960 Climbing Indianapolis Center
08:40 38.6619 -85.7408 North 492 566 29,400 780 Climbing Indianapolis Center
08:41 38.8008 -85.7356 North 497 572 30,000 240 Climbing Indianapolis Center
08:42 38.9469 -85.7317 North 520 598 30,000  Level Indianapolis Center
08:43 39.1003 -85.7269 North 544 626 30,000  Level Indianapolis Center
08:44 39.2561 -85.7194 North 556 640 30,000 -240 Level Indianapolis Center
08:45 39.4136 -85.7158 North 564 649 29,600 -600 Descending Indianapolis Center
08:46 39.5719 -85.7117 North 567 652 28,800 -840 Descending Indianapolis Center
08:47 39.7314 -85.7053 North 561 646 28,000 -420 Descending Indianapolis Center
08:48 39.9161 -85.6983 North 562 647 28,000 -360 Level Indianapolis Center
08:49 40.0725 -85.6939 North 557 641 27,300 -780 Descending Indianapolis Center
08:49 40.1253 -85.6911 North 551 634 26,900 -900 Descending Chicago Center
08:50 40.2792 -85.6869 North 551 634 26,000 -1,020 Descending Chicago Center
08:51 40.4369 -85.6800 North 563 648 24,900 -1,020 Descending Chicago Center
08:52 40.5856 -85.7089 352° North 544 626 24,000 -960 Descending Chicago Center
08:54 40.7217 -85.7697 341° North 519 597 23,000 -1,020 Descending Chicago Center
08:55 40.8547 -85.8319 341° North 509 586 22,000 -900 Descending Chicago Center
08:56 40.9875 -85.9450 327° Northwest 471 542 21,200 -1,080 Descending Chicago Center
08:57 41.0772 -86.0564 317° Northwest 445 512 19,800 -1,380 Descending Chicago Center
08:58 41.1647 -86.1667 317° Northwest 434 499 18,400 -1,560 Descending Chicago Center
08:59 41.2500 -86.2739 317° Northwest 423 487 16,700 -1,680 Descending Chicago Center
09:00 41.3294 -86.3750 316° Northwest 400 460 15,000 -1,980 Descending Chicago Center
09:01 41.4000 -86.4647 316° Northwest 358 412 12,700 -1,500 Descending Chicago Center
09:02 41.4742 -86.5597 316° Northwest 366 421 12,000 -300 Descending Chicago Center
09:03 41.5478 -86.6550 316° Northwest 369 425 12,100  Climbing Chicago Center
09:04 41.6267 -86.7539 317° Northwest 370 426 12,100  Level Chicago Center
09:05 41.7414 -86.8042 342° North 386 444 12,100  Level Chicago Center
09:06 41.8481 -86.8269 351° North 389 448 12,100 -480 Level Chicago Center
09:07 41.9128 -86.9228 312° West 354 407 11,200 -1,020 Descending Chicago Center
09:08 41.9658 -87.0272 304° West 345 397 10,100 -780 Descending Chicago Center
09:09 41.9869 -87.1233 286° West 279 321 9,700 -1,020 Descending Chicago Center
09:10 41.9811 -87.2081 265° West 236 272 8,000 -1,320 Descending Chicago Center
09:11 41.9819 -87.3142 271° West 234 269 7,000 -540 Descending Chicago Center
09:12 41.9833 -87.3833 272° West 232 267 7,000 -60 Level Chicago TRACON
09:13 41.9833 -87.4667 270° West 227 261 6,900 -600 Descending Chicago TRACON
09:14 41.9833 -87.5500 270° West 230 265 5,800 -1,140 Descending Chicago TRACON
09:15 41.9833 -87.6500 270° West 223 257 4,700 -1,260 Descending Chicago TRACON
09:16 41.9833 -87.7167 270° West 211 243 3,300 -1,260 Descending Chicago TRACON
09:17 41.9833 -87.7833 270° West 168 193 2,200 -960 Descending Chicago TRACON
09:18 41.9833 -87.8333 270° West 132 152 1,400 -840 Descending Chicago TRACON
09:20 41.9667 -87.9000 270° West  Level FlightAware Approximate